sensor_id;sensor_type;location;lat;lon;timestamp;temperature;humidity
4934;DHT22;2482;49.154;8.254;2023-12-20T00:02:17;5.30;99.90
4934;DHT22;2482;49.154;8.254;2023-12-20T00:04:44;5.30;99.90
4934;DHT22;2482;49.154;8.254;2023-12-20T00:07:11;5.30;99.90
4934;DHT22;2482;49.154;8.254;2023-12-20T00:09:39;5.30;99.90
4934;DHT22;2482;49.154;8.254;2023-12-20T00:12:06;5.30;99.90
4934;DHT22;2482;49.154;8.254;2023-12-20T00:14:33;5.30;99.90
4934;DHT22;2482;49.154;8.254;2023-12-20T00:17:00;5.20;99.90
4934;DHT22;2482;49.154;8.254;2023-12-20T00:19:27;5.30;99.90
4934;DHT22;2482;49.154;8.254;2023-12-20T00:21:54;5.30;99.90
4934;DHT22;2482;49.154;8.254;2023-12-20T00:24:21;5.30;99.90
4934;DHT22;2482;49.154;8.254;2023-12-20T00:26:48;5.40;99.90
4934;DHT22;2482;49.154;8.254;2023-12-20T00:29:15;5.40;99.90
4934;DHT22;2482;49.154;8.254;2023-12-20T00:31:42;5.40;99.90
4934;DHT22;2482;49.154;8.254;2023-12-20T00:34:09;5.30;99.90
4934;DHT22;2482;49.154;8.254;2023-12-20T00:36:36;5.30;99.90
4934;DHT22;2482;49.154;8.254;2023-12-20T00:39:03;5.30;99.90
4934;DHT22;2482;49.154;8.254;2023-12-20T00:41:31;5.30;99.90
4934;DHT22;2482;49.154;8.254;2023-12-20T00:43:58;5.30;99.90
4934;DHT22;2482;49.154;8.254;2023-12-20T00:46:25;5.40;99.90
4934;DHT22;2482;49.154;8.254;2023-12-20T00:48:52;5.60;99.90
4934;DHT22;2482;49.154;8.254;2023-12-20T00:51:19;5.40;99.90
4934;DHT22;2482;49.154;8.254;2023-12-20T00:53:46;5.40;99.90
4934;DHT22;2482;49.154;8.254;2023-12-20T00:56:16;5.40;99.90
4934;DHT22;2482;49.154;8.254;2023-12-20T00:58:43;5.50;99.90
4934;DHT22;2482;49.154;8.254;2023-12-20T01:01:10;5.40;99.90
4934;DHT22;2482;49.154;8.254;2023-12-20T01:03:37;5.40;99.90
4934;DHT22;2482;49.154;8.254;2023-12-20T01:06:05;5.50;99.90
4934;DHT22;2482;49.154;8.254;2023-12-20T01:08:32;5.40;99.90
4934;DHT22;2482;49.154;8.254;2023-12-20T01:11:04;5.40;99.90
4934;DHT22;2482;49.154;8.254;2023-12-20T01:13:32;5.40;99.90
4934;DHT22;2482;49.154;8.254;2023-12-20T01:15:59;5.30;99.90
4934;DHT22;2482;49.154;8.254;2023-12-20T01:18:26;5.40;99.90
4934;DHT22;2482;49.154;8.254;2023-12-20T01:20:53;5.50;99.90
4934;DHT22;2482;49.154;8.254;2023-12-20T01:23:20;5.50;99.90
4934;DHT22;2482;49.154;8.254;2023-12-20T01:25:48;5.40;99.90
4934;DHT22;2482;49.154;8.254;2023-12-20T01:28:15;5.50;99.90
4934;DHT22;2482;49.154;8.254;2023-12-20T01:30:42;5.50;99.90
4934;DHT22;2482;49.154;8.254;2023-12-20T01:33:10;5.60;99.90
4934;DHT22;2482;49.154;8.254;2023-12-20T01:35:37;5.50;99.90
4934;DHT22;2482;49.154;8.254;2023-12-20T01:38:04;5.40;99.90
4934;DHT22;2482;49.154;8.254;2023-12-20T01:40:31;5.40;99.90
4934;DHT22;2482;49.154;8.254;2023-12-20T01:43:04;5.40;99.90
4934;DHT22;2482;49.154;8.254;2023-12-20T01:45:34;5.50;99.90
4934;DHT22;2482;49.154;8.254;2023-12-20T01:48:02;5.40;99.90
4934;DHT22;2482;49.154;8.254;2023-12-20T01:50:31;5.40;99.90
4934;DHT22;2482;49.154;8.254;2023-12-20T01:53:00;5.30;99.90
4934;DHT22;2482;49.154;8.254;2023-12-20T01:55:30;5.50;99.90
4934;DHT22;2482;49.154;8.254;2023-12-20T01:57:59;5.50;99.90
4934;DHT22;2482;49.154;8.254;2023-12-20T02:00:30;5.50;99.90
4934;DHT22;2482;49.154;8.254;2023-12-20T02:03:01;5.40;99.90
4934;DHT22;2482;49.154;8.254;2023-12-20T02:05:34;5.50;99.90
4934;DHT22;2482;49.154;8.254;2023-12-20T02:08:02;5.50;99.90
4934;DHT22;2482;49.154;8.254;2023-12-20T02:10:29;5.50;99.90
4934;DHT22;2482;49.154;8.254;2023-12-20T02:12:57;5.50;99.90
4934;DHT22;2482;49.154;8.254;2023-12-20T02:15:24;5.50;99.90
4934;DHT22;2482;49.154;8.254;2023-12-20T02:17:51;5.50;99.90
4934;DHT22;2482;49.154;8.254;2023-12-20T02:20:18;5.50;99.90
4934;DHT22;2482;49.154;8.254;2023-12-20T02:22:45;5.60;99.90
4934;DHT22;2482;49.154;8.254;2023-12-20T02:25:12;5.50;99.90
4934;DHT22;2482;49.154;8.254;2023-12-20T02:27:39;5.70;99.90
4934;DHT22;2482;49.154;8.254;2023-12-20T02:30:07;5.50;99.90
4934;DHT22;2482;49.154;8.254;2023-12-20T02:32:35;5.50;99.90
4934;DHT22;2482;49.154;8.254;2023-12-20T02:35:02;5.60;99.90
4934;DHT22;2482;49.154;8.254;2023-12-20T02:37:29;5.50;99.90
4934;DHT22;2482;49.154;8.254;2023-12-20T02:39:56;5.50;99.90
4934;DHT22;2482;49.154;8.254;2023-12-20T02:42:23;5.60;99.90
4934;DHT22;2482;49.154;8.254;2023-12-20T02:44:50;5.60;99.90
4934;DHT22;2482;49.154;8.254;2023-12-20T02:47:17;5.50;99.90
4934;DHT22;2482;49.154;8.254;2023-12-20T02:49:44;5.60;99.90
4934;DHT22;2482;49.154;8.254;2023-12-20T02:52:11;5.50;99.90
4934;DHT22;2482;49.154;8.254;2023-12-20T02:54:38;5.50;99.90
4934;DHT22;2482;49.154;8.254;2023-12-20T02:57:06;5.50;99.90
4934;DHT22;2482;49.154;8.254;2023-12-20T02:59:33;5.50;99.90
4934;DHT22;2482;49.154;8.254;2023-12-20T03:02:00;5.60;99.90
4934;DHT22;2482;49.154;8.254;2023-12-20T03:04:27;5.50;99.90
4934;DHT22;2482;49.154;8.254;2023-12-20T03:06:54;5.60;99.90
4934;DHT22;2482;49.154;8.254;2023-12-20T03:09:21;5.40;99.90
4934;DHT22;2482;49.154;8.254;2023-12-20T03:11:48;5.50;99.90
4934;DHT22;2482;49.154;8.254;2023-12-20T03:14:15;5.50;99.90
4934;DHT22;2482;49.154;8.254;2023-12-20T03:16:47;5.50;99.90
4934;DHT22;2482;49.154;8.254;2023-12-20T03:19:17;5.40;99.90
4934;DHT22;2482;49.154;8.254;2023-12-20T03:21:45;5.50;99.90
4934;DHT22;2482;49.154;8.254;2023-12-20T03:24:12;5.50;99.90
4934;DHT22;2482;49.154;8.254;2023-12-20T03:26:39;5.60;99.90
4934;DHT22;2482;49.154;8.254;2023-12-20T03:29:06;5.50;99.90
4934;DHT22;2482;49.154;8.254;2023-12-20T03:31:33;5.70;99.90
4934;DHT22;2482;49.154;8.254;2023-12-20T03:34:00;5.50;99.90
4934;DHT22;2482;49.154;8.254;2023-12-20T03:36:27;5.50;99.90
4934;DHT22;2482;49.154;8.254;2023-12-20T03:38:54;5.60;99.90
4934;DHT22;2482;49.154;8.254;2023-12-20T03:41:21;5.60;99.90
4934;DHT22;2482;49.154;8.254;2023-12-20T03:43:48;5.60;99.90
4934;DHT22;2482;49.154;8.254;2023-12-20T03:46:15;5.40;99.90
4934;DHT22;2482;49.154;8.254;2023-12-20T03:48:43;5.50;99.90
4934;DHT22;2482;49.154;8.254;2023-12-20T03:51:10;5.50;99.90
4934;DHT22;2482;49.154;8.254;2023-12-20T03:53:37;5.60;99.90
4934;DHT22;2482;49.154;8.254;2023-12-20T03:56:05;5.60;99.90
4934;DHT22;2482;49.154;8.254;2023-12-20T03:58:32;5.60;99.90
4934;DHT22;2482;49.154;8.254;2023-12-20T04:00:59;5.60;99.90
4934;DHT22;2482;49.154;8.254;2023-12-20T04:03:26;5.90;99.90
4934;DHT22;2482;49.154;8.254;2023-12-20T04:05:53;5.70;99.90
4934;DHT22;2482;49.154;8.254;2023-12-20T04:08:20;5.60;99.90
4934;DHT22;2482;49.154;8.254;2023-12-20T04:10:47;5.50;99.90
4934;DHT22;2482;49.154;8.254;2023-12-20T04:13:14;5.50;99.90
4934;DHT22;2482;49.154;8.254;2023-12-20T04:15:41;5.50;99.90
4934;DHT22;2482;49.154;8.254;2023-12-20T04:18:08;5.50;99.90
4934;DHT22;2482;49.154;8.254;2023-12-20T04:20:35;5.50;99.90
4934;DHT22;2482;49.154;8.254;2023-12-20T04:23:02;5.50;99.90
4934;DHT22;2482;49.154;8.254;2023-12-20T04:25:29;5.50;99.90
4934;DHT22;2482;49.154;8.254;2023-12-20T04:27:56;5.60;99.90
4934;DHT22;2482;49.154;8.254;2023-12-20T04:30:23;5.50;99.90
4934;DHT22;2482;49.154;8.254;2023-12-20T04:32:50;5.50;99.90
4934;DHT22;2482;49.154;8.254;2023-12-20T04:35:17;5.70;99.90
4934;DHT22;2482;49.154;8.254;2023-12-20T04:37:44;5.50;99.90
4934;DHT22;2482;49.154;8.254;2023-12-20T04:40:11;5.60;99.90
4934;DHT22;2482;49.154;8.254;2023-12-20T04:42:38;5.80;99.90
4934;DHT22;2482;49.154;8.254;2023-12-20T04:45:06;5.60;99.90
4934;DHT22;2482;49.154;8.254;2023-12-20T04:47:33;5.60;99.90
4934;DHT22;2482;49.154;8.254;2023-12-20T04:50:00;5.70;99.90
4934;DHT22;2482;49.154;8.254;2023-12-20T04:52:29;5.80;99.90
4934;DHT22;2482;49.154;8.254;2023-12-20T04:54:56;5.70;99.90
4934;DHT22;2482;49.154;8.254;2023-12-20T04:57:23;5.70;99.90
4934;DHT22;2482;49.154;8.254;2023-12-20T04:59:50;5.80;99.90
4934;DHT22;2482;49.154;8.254;2023-12-20T05:02:17;5.90;99.90
4934;DHT22;2482;49.154;8.254;2023-12-20T05:04:44;5.70;99.90
4934;DHT22;2482;49.154;8.254;2023-12-20T05:07:11;5.70;99.90
4934;DHT22;2482;49.154;8.254;2023-12-20T05:09:38;5.80;99.90
4934;DHT22;2482;49.154;8.254;2023-12-20T05:12:06;6.00;99.90
4934;DHT22;2482;49.154;8.254;2023-12-20T05:14:33;5.80;99.90
4934;DHT22;2482;49.154;8.254;2023-12-20T05:17:00;5.90;99.90
4934;DHT22;2482;49.154;8.254;2023-12-20T05:19:27;6.00;99.90
4934;DHT22;2482;49.154;8.254;2023-12-20T05:21:54;5.90;99.90
4934;DHT22;2482;49.154;8.254;2023-12-20T05:24:22;6.00;99.90
4934;DHT22;2482;49.154;8.254;2023-12-20T05:26:49;5.90;99.90
4934;DHT22;2482;49.154;8.254;2023-12-20T05:29:19;5.90;99.90
4934;DHT22;2482;49.154;8.254;2023-12-20T05:31:46;6.20;99.90
4934;DHT22;2482;49.154;8.254;2023-12-20T05:34:13;6.00;99.90
4934;DHT22;2482;49.154;8.254;2023-12-20T05:36:40;6.00;99.90
4934;DHT22;2482;49.154;8.254;2023-12-20T05:39:07;6.00;99.90
4934;DHT22;2482;49.154;8.254;2023-12-20T05:41:34;6.00;99.90
4934;DHT22;2482;49.154;8.254;2023-12-20T05:44:01;5.90;99.90
4934;DHT22;2482;49.154;8.254;2023-12-20T05:46:28;5.80;99.90
4934;DHT22;2482;49.154;8.254;2023-12-20T05:48:56;5.90;99.90
4934;DHT22;2482;49.154;8.254;2023-12-20T05:51:23;6.00;99.90
4934;DHT22;2482;49.154;8.254;2023-12-20T05:53:50;6.10;99.90
4934;DHT22;2482;49.154;8.254;2023-12-20T05:56:17;6.00;99.90
4934;DHT22;2482;49.154;8.254;2023-12-20T05:58:44;6.00;99.90
4934;DHT22;2482;49.154;8.254;2023-12-20T06:01:11;6.00;99.90
4934;DHT22;2482;49.154;8.254;2023-12-20T06:03:41;6.00;99.90
4934;DHT22;2482;49.154;8.254;2023-12-20T06:06:09;6.10;99.90
4934;DHT22;2482;49.154;8.254;2023-12-20T06:08:43;6.00;99.90
4934;DHT22;2482;49.154;8.254;2023-12-20T06:11:10;6.10;99.90
4934;DHT22;2482;49.154;8.254;2023-12-20T06:13:37;5.80;99.90
4934;DHT22;2482;49.154;8.254;2023-12-20T06:16:06;5.80;99.90
4934;DHT22;2482;49.154;8.254;2023-12-20T06:18:36;5.80;99.90
4934;DHT22;2482;49.154;8.254;2023-12-20T06:21:04;5.80;99.90
4934;DHT22;2482;49.154;8.254;2023-12-20T06:23:31;5.70;99.90
4934;DHT22;2482;49.154;8.254;2023-12-20T06:25:58;5.70;99.90
4934;DHT22;2482;49.154;8.254;2023-12-20T06:28:25;5.50;99.90
4934;DHT22;2482;49.154;8.254;2023-12-20T06:30:52;5.70;99.90
4934;DHT22;2482;49.154;8.254;2023-12-20T06:33:21;5.60;99.90
4934;DHT22;2482;49.154;8.254;2023-12-20T06:35:49;5.80;99.90
4934;DHT22;2482;49.154;8.254;2023-12-20T06:38:18;5.60;99.90
4934;DHT22;2482;49.154;8.254;2023-12-20T06:40:45;5.70;99.90
4934;DHT22;2482;49.154;8.254;2023-12-20T06:43:13;5.70;99.90
4934;DHT22;2482;49.154;8.254;2023-12-20T06:46:00;5.70;99.90
4934;DHT22;2482;49.154;8.254;2023-12-20T06:48:27;5.60;99.90
4934;DHT22;2482;49.154;8.254;2023-12-20T06:50:54;5.60;99.90
4934;DHT22;2482;49.154;8.254;2023-12-20T06:53:22;5.60;99.90
4934;DHT22;2482;49.154;8.254;2023-12-20T06:55:49;5.50;99.90
4934;DHT22;2482;49.154;8.254;2023-12-20T06:58:16;5.60;99.90
4934;DHT22;2482;49.154;8.254;2023-12-20T07:00:43;5.40;99.90
4934;DHT22;2482;49.154;8.254;2023-12-20T07:03:10;5.40;99.90
4934;DHT22;2482;49.154;8.254;2023-12-20T07:05:39;5.20;99.90
4934;DHT22;2482;49.154;8.254;2023-12-20T07:08:07;5.20;99.90
4934;DHT22;2482;49.154;8.254;2023-12-20T07:10:34;5.20;99.90
4934;DHT22;2482;49.154;8.254;2023-12-20T07:13:01;5.00;99.90
4934;DHT22;2482;49.154;8.254;2023-12-20T07:15:28;4.90;99.90
4934;DHT22;2482;49.154;8.254;2023-12-20T07:17:56;4.80;99.90
4934;DHT22;2482;49.154;8.254;2023-12-20T07:20:23;4.80;99.90
4934;DHT22;2482;49.154;8.254;2023-12-20T07:22:50;4.60;99.90
4934;DHT22;2482;49.154;8.254;2023-12-20T07:25:17;4.60;99.90
4934;DHT22;2482;49.154;8.254;2023-12-20T07:27:44;4.60;99.90
4934;DHT22;2482;49.154;8.254;2023-12-20T07:30:12;4.70;99.90
4934;DHT22;2482;49.154;8.254;2023-12-20T07:32:39;4.50;99.90
4934;DHT22;2482;49.154;8.254;2023-12-20T07:35:07;4.60;99.90
4934;DHT22;2482;49.154;8.254;2023-12-20T07:37:34;4.30;99.90
4934;DHT22;2482;49.154;8.254;2023-12-20T07:40:01;4.40;99.90
4934;DHT22;2482;49.154;8.254;2023-12-20T07:42:30;4.40;99.90
4934;DHT22;2482;49.154;8.254;2023-12-20T07:44:57;4.50;99.90
4934;DHT22;2482;49.154;8.254;2023-12-20T07:47:24;4.40;99.90
4934;DHT22;2482;49.154;8.254;2023-12-20T07:49:52;4.40;99.90
4934;DHT22;2482;49.154;8.254;2023-12-20T07:52:20;4.40;99.90
4934;DHT22;2482;49.154;8.254;2023-12-20T07:54:50;4.10;99.90
4934;DHT22;2482;49.154;8.254;2023-12-20T07:57:17;4.20;99.90
4934;DHT22;2482;49.154;8.254;2023-12-20T07:59:44;4.30;99.90
4934;DHT22;2482;49.154;8.254;2023-12-20T08:02:11;4.30;99.90
4934;DHT22;2482;49.154;8.254;2023-12-20T08:04:39;4.40;99.90
4934;DHT22;2482;49.154;8.254;2023-12-20T08:07:08;4.50;99.90
4934;DHT22;2482;49.154;8.254;2023-12-20T08:09:35;4.50;99.90
4934;DHT22;2482;49.154;8.254;2023-12-20T08:12:04;4.70;99.90
4934;DHT22;2482;49.154;8.254;2023-12-20T08:14:31;4.70;99.90
4934;DHT22;2482;49.154;8.254;2023-12-20T08:16:58;4.70;99.90
4934;DHT22;2482;49.154;8.254;2023-12-20T08:19:25;5.00;99.90
4934;DHT22;2482;49.154;8.254;2023-12-20T08:21:52;5.10;99.90
4934;DHT22;2482;49.154;8.254;2023-12-20T08:24:19;5.30;99.90
4934;DHT22;2482;49.154;8.254;2023-12-20T08:26:46;5.20;99.90
4934;DHT22;2482;49.154;8.254;2023-12-20T08:29:14;5.30;99.90
4934;DHT22;2482;49.154;8.254;2023-12-20T08:31:41;5.50;99.90
4934;DHT22;2482;49.154;8.254;2023-12-20T08:34:08;5.70;99.90
4934;DHT22;2482;49.154;8.254;2023-12-20T08:36:35;5.80;99.90
4934;DHT22;2482;49.154;8.254;2023-12-20T08:39:02;5.90;99.90
4934;DHT22;2482;49.154;8.254;2023-12-20T08:41:32;6.00;99.90
4934;DHT22;2482;49.154;8.254;2023-12-20T08:43:59;6.00;99.90
4934;DHT22;2482;49.154;8.254;2023-12-20T08:46:26;6.10;99.90
4934;DHT22;2482;49.154;8.254;2023-12-20T08:48:53;6.20;99.90
4934;DHT22;2482;49.154;8.254;2023-12-20T08:51:21;6.20;99.90
4934;DHT22;2482;49.154;8.254;2023-12-20T08:53:50;6.20;99.90
4934;DHT22;2482;49.154;8.254;2023-12-20T08:56:17;6.30;99.90
4934;DHT22;2482;49.154;8.254;2023-12-20T08:58:48;6.50;99.90
4934;DHT22;2482;49.154;8.254;2023-12-20T09:01:15;6.40;99.90
4934;DHT22;2482;49.154;8.254;2023-12-20T09:03:42;6.40;99.90
4934;DHT22;2482;49.154;8.254;2023-12-20T09:06:10;6.50;99.90
4934;DHT22;2482;49.154;8.254;2023-12-20T09:08:37;6.70;99.90
4934;DHT22;2482;49.154;8.254;2023-12-20T09:11:04;6.50;99.90
4934;DHT22;2482;49.154;8.254;2023-12-20T09:13:31;6.70;99.90
4934;DHT22;2482;49.154;8.254;2023-12-20T09:15:59;6.80;99.90
4934;DHT22;2482;49.154;8.254;2023-12-20T09:18:26;7.00;99.90
4934;DHT22;2482;49.154;8.254;2023-12-20T09:20:54;6.80;99.90
4934;DHT22;2482;49.154;8.254;2023-12-20T09:23:21;7.00;99.90
4934;DHT22;2482;49.154;8.254;2023-12-20T09:25:48;6.90;99.90
4934;DHT22;2482;49.154;8.254;2023-12-20T09:28:15;6.80;99.90
4934;DHT22;2482;49.154;8.254;2023-12-20T09:30:42;6.70;99.90
4934;DHT22;2482;49.154;8.254;2023-12-20T09:33:12;6.70;99.90
4934;DHT22;2482;49.154;8.254;2023-12-20T09:35:39;6.70;99.90
4934;DHT22;2482;49.154;8.254;2023-12-20T09:38:06;6.60;99.90
4934;DHT22;2482;49.154;8.254;2023-12-20T09:40:35;6.80;99.90
4934;DHT22;2482;49.154;8.254;2023-12-20T09:43:11;6.70;99.90
4934;DHT22;2482;49.154;8.254;2023-12-20T09:45:42;6.80;99.90
4934;DHT22;2482;49.154;8.254;2023-12-20T09:48:13;6.80;99.90
4934;DHT22;2482;49.154;8.254;2023-12-20T09:50:44;6.70;99.90
4934;DHT22;2482;49.154;8.254;2023-12-20T09:53:19;6.50;99.90
4934;DHT22;2482;49.154;8.254;2023-12-20T09:55:46;6.30;99.90
4934;DHT22;2482;49.154;8.254;2023-12-20T09:58:13;6.20;99.90
4934;DHT22;2482;49.154;8.254;2023-12-20T10:00:41;6.40;99.90
4934;DHT22;2482;49.154;8.254;2023-12-20T10:03:08;6.50;99.90
4934;DHT22;2482;49.154;8.254;2023-12-20T10:05:36;6.30;99.90
4934;DHT22;2482;49.154;8.254;2023-12-20T10:08:04;6.30;99.90
4934;DHT22;2482;49.154;8.254;2023-12-20T10:10:31;6.30;99.90
4934;DHT22;2482;49.154;8.254;2023-12-20T10:13:12;6.30;99.90
4934;DHT22;2482;49.154;8.254;2023-12-20T10:15:40;6.20;99.90
4934;DHT22;2482;49.154;8.254;2023-12-20T10:18:09;6.30;99.90
4934;DHT22;2482;49.154;8.254;2023-12-20T10:20:37;6.30;99.90
4934;DHT22;2482;49.154;8.254;2023-12-20T10:23:04;6.30;99.90
4934;DHT22;2482;49.154;8.254;2023-12-20T10:25:32;6.30;99.90
4934;DHT22;2482;49.154;8.254;2023-12-20T10:28:10;6.30;99.90
4934;DHT22;2482;49.154;8.254;2023-12-20T10:30:41;6.40;99.90
4934;DHT22;2482;49.154;8.254;2023-12-20T10:33:10;6.40;99.90
4934;DHT22;2482;49.154;8.254;2023-12-20T10:35:39;6.60;99.90
4934;DHT22;2482;49.154;8.254;2023-12-20T10:38:12;6.60;99.90
4934;DHT22;2482;49.154;8.254;2023-12-20T10:40:41;6.80;99.90
4934;DHT22;2482;49.154;8.254;2023-12-20T10:43:10;6.90;99.90
4934;DHT22;2482;49.154;8.254;2023-12-20T10:45:38;7.10;99.90
4934;DHT22;2482;49.154;8.254;2023-12-20T10:48:06;7.30;99.90
4934;DHT22;2482;49.154;8.254;2023-12-20T10:50:36;7.50;99.90
4934;DHT22;2482;49.154;8.254;2023-12-20T10:53:06;7.60;99.90
4934;DHT22;2482;49.154;8.254;2023-12-20T10:55:34;7.40;99.90
4934;DHT22;2482;49.154;8.254;2023-12-20T10:58:06;7.20;99.90
4934;DHT22;2482;49.154;8.254;2023-12-20T11:00:40;7.00;99.90
4934;DHT22;2482;49.154;8.254;2023-12-20T11:03:11;7.00;99.90
4934;DHT22;2482;49.154;8.254;2023-12-20T11:05:59;7.00;99.90
4934;DHT22;2482;49.154;8.254;2023-12-20T11:08:38;6.90;99.90
4934;DHT22;2482;49.154;8.254;2023-12-20T11:11:26;7.00;99.90
4934;DHT22;2482;49.154;8.254;2023-12-20T11:14:03;6.90;99.90
4934;DHT22;2482;49.154;8.254;2023-12-20T11:16:33;6.90;99.90
4934;DHT22;2482;49.154;8.254;2023-12-20T11:19:17;6.90;99.90
4934;DHT22;2482;49.154;8.254;2023-12-20T11:21:46;6.80;99.90
4934;DHT22;2482;49.154;8.254;2023-12-20T11:24:13;6.60;99.90
4934;DHT22;2482;49.154;8.254;2023-12-20T11:26:47;6.70;99.90
4934;DHT22;2482;49.154;8.254;2023-12-20T11:29:35;6.50;99.90
4934;DHT22;2482;49.154;8.254;2023-12-20T11:34:54;6.70;99.90
4934;DHT22;2482;49.154;8.254;2023-12-20T11:37:41;6.70;99.90
4934;DHT22;2482;49.154;8.254;2023-12-20T11:40:20;6.60;99.90
4934;DHT22;2482;49.154;8.254;2023-12-20T11:42:50;6.60;99.90
4934;DHT22;2482;49.154;8.254;2023-12-20T11:45:19;6.60;99.90
4934;DHT22;2482;49.154;8.254;2023-12-20T11:47:50;6.60;99.90
4934;DHT22;2482;49.154;8.254;2023-12-20T11:50:18;6.50;99.90
4934;DHT22;2482;49.154;8.254;2023-12-20T11:52:47;6.50;99.90
4934;DHT22;2482;49.154;8.254;2023-12-20T11:55:14;6.60;99.90
4934;DHT22;2482;49.154;8.254;2023-12-20T11:57:42;6.70;99.90
4934;DHT22;2482;49.154;8.254;2023-12-20T12:00:11;6.80;99.90
4934;DHT22;2482;49.154;8.254;2023-12-20T12:02:38;6.80;99.90
4934;DHT22;2482;49.154;8.254;2023-12-20T12:05:06;6.90;99.90
4934;DHT22;2482;49.154;8.254;2023-12-20T12:07:34;6.90;99.90
4934;DHT22;2482;49.154;8.254;2023-12-20T12:10:02;7.10;99.90
4934;DHT22;2482;49.154;8.254;2023-12-20T12:12:30;7.00;99.90
4934;DHT22;2482;49.154;8.254;2023-12-20T12:14:59;7.20;99.90
4934;DHT22;2482;49.154;8.254;2023-12-20T12:17:26;6.90;99.90
4934;DHT22;2482;49.154;8.254;2023-12-20T12:20:02;6.90;99.90
4934;DHT22;2482;49.154;8.254;2023-12-20T12:22:31;6.80;99.90
4934;DHT22;2482;49.154;8.254;2023-12-20T12:25:09;6.80;99.90
4934;DHT22;2482;49.154;8.254;2023-12-20T12:27:41;6.80;99.90
4934;DHT22;2482;49.154;8.254;2023-12-20T12:30:10;6.90;99.90
4934;DHT22;2482;49.154;8.254;2023-12-20T12:32:39;6.80;99.90
4934;DHT22;2482;49.154;8.254;2023-12-20T12:35:07;6.90;99.90
4934;DHT22;2482;49.154;8.254;2023-12-20T12:37:38;6.80;99.90
4934;DHT22;2482;49.154;8.254;2023-12-20T12:40:14;7.00;99.90
4934;DHT22;2482;49.154;8.254;2023-12-20T12:42:43;6.80;99.90
4934;DHT22;2482;49.154;8.254;2023-12-20T12:45:11;6.70;99.90
4934;DHT22;2482;49.154;8.254;2023-12-20T12:47:39;6.70;99.90
4934;DHT22;2482;49.154;8.254;2023-12-20T12:50:07;6.80;99.90
4934;DHT22;2482;49.154;8.254;2023-12-20T12:52:35;6.70;99.90
4934;DHT22;2482;49.154;8.254;2023-12-20T12:55:02;6.70;99.90
4934;DHT22;2482;49.154;8.254;2023-12-20T12:57:32;6.80;99.90
4934;DHT22;2482;49.154;8.254;2023-12-20T13:00:00;6.80;99.90
4934;DHT22;2482;49.154;8.254;2023-12-20T13:02:27;6.70;99.90
4934;DHT22;2482;49.154;8.254;2023-12-20T13:04:54;6.70;99.90
4934;DHT22;2482;49.154;8.254;2023-12-20T13:07:21;6.70;99.90
4934;DHT22;2482;49.154;8.254;2023-12-20T13:09:48;6.70;99.90
4934;DHT22;2482;49.154;8.254;2023-12-20T13:12:15;6.70;99.90
4934;DHT22;2482;49.154;8.254;2023-12-20T13:14:42;6.70;99.90
4934;DHT22;2482;49.154;8.254;2023-12-20T13:17:09;6.80;99.90
4934;DHT22;2482;49.154;8.254;2023-12-20T13:19:36;6.80;99.90
4934;DHT22;2482;49.154;8.254;2023-12-20T13:22:03;6.80;99.90
4934;DHT22;2482;49.154;8.254;2023-12-20T13:24:30;6.90;99.90
4934;DHT22;2482;49.154;8.254;2023-12-20T13:26:59;6.80;99.90
4934;DHT22;2482;49.154;8.254;2023-12-20T13:29:26;6.80;99.90
4934;DHT22;2482;49.154;8.254;2023-12-20T13:31:55;6.80;99.90
4934;DHT22;2482;49.154;8.254;2023-12-20T13:34:23;6.70;99.90
4934;DHT22;2482;49.154;8.254;2023-12-20T13:36:50;6.80;99.90
4934;DHT22;2482;49.154;8.254;2023-12-20T13:39:18;6.90;99.90
4934;DHT22;2482;49.154;8.254;2023-12-20T13:41:45;6.60;99.90
4934;DHT22;2482;49.154;8.254;2023-12-20T13:44:12;6.70;99.90
4934;DHT22;2482;49.154;8.254;2023-12-20T13:46:41;6.90;99.90
4934;DHT22;2482;49.154;8.254;2023-12-20T13:49:08;6.90;99.90
4934;DHT22;2482;49.154;8.254;2023-12-20T13:51:35;6.80;99.90
4934;DHT22;2482;49.154;8.254;2023-12-20T13:54:02;6.70;99.90
4934;DHT22;2482;49.154;8.254;2023-12-20T13:56:29;6.80;99.90
4934;DHT22;2482;49.154;8.254;2023-12-20T13:58:56;6.70;99.90
4934;DHT22;2482;49.154;8.254;2023-12-20T14:01:23;6.70;99.90
4934;DHT22;2482;49.154;8.254;2023-12-20T14:03:51;6.70;99.90
4934;DHT22;2482;49.154;8.254;2023-12-20T14:06:18;6.60;99.90
4934;DHT22;2482;49.154;8.254;2023-12-20T14:08:45;6.70;99.90
4934;DHT22;2482;49.154;8.254;2023-12-20T14:11:12;6.60;99.90
4934;DHT22;2482;49.154;8.254;2023-12-20T14:13:42;6.70;99.90
4934;DHT22;2482;49.154;8.254;2023-12-20T14:16:10;6.80;99.90
4934;DHT22;2482;49.154;8.254;2023-12-20T14:18:37;6.80;99.90
4934;DHT22;2482;49.154;8.254;2023-12-20T14:21:06;6.80;99.90
4934;DHT22;2482;49.154;8.254;2023-12-20T14:23:34;6.60;99.90
4934;DHT22;2482;49.154;8.254;2023-12-20T14:26:01;6.50;99.90
4934;DHT22;2482;49.154;8.254;2023-12-20T14:28:29;6.70;99.90
4934;DHT22;2482;49.154;8.254;2023-12-20T14:30:56;6.60;99.90
4934;DHT22;2482;49.154;8.254;2023-12-20T14:33:23;6.70;99.90
4934;DHT22;2482;49.154;8.254;2023-12-20T14:35:51;6.70;99.90
4934;DHT22;2482;49.154;8.254;2023-12-20T14:38:19;6.70;99.90
4934;DHT22;2482;49.154;8.254;2023-12-20T14:40:46;6.50;99.90
4934;DHT22;2482;49.154;8.254;2023-12-20T14:43:13;6.60;99.90
4934;DHT22;2482;49.154;8.254;2023-12-20T14:45:40;6.70;99.90
4934;DHT22;2482;49.154;8.254;2023-12-20T14:48:07;6.70;99.90
4934;DHT22;2482;49.154;8.254;2023-12-20T14:50:34;6.60;99.90
4934;DHT22;2482;49.154;8.254;2023-12-20T14:53:03;6.80;99.90
4934;DHT22;2482;49.154;8.254;2023-12-20T14:55:30;6.60;99.90
4934;DHT22;2482;49.154;8.254;2023-12-20T14:57:57;6.60;99.90
4934;DHT22;2482;49.154;8.254;2023-12-20T15:00:25;6.50;99.90
4934;DHT22;2482;49.154;8.254;2023-12-20T15:02:52;6.60;99.90
4934;DHT22;2482;49.154;8.254;2023-12-20T15:05:21;6.70;99.90
4934;DHT22;2482;49.154;8.254;2023-12-20T15:07:48;6.50;99.90
4934;DHT22;2482;49.154;8.254;2023-12-20T15:10:15;6.60;99.90
4934;DHT22;2482;49.154;8.254;2023-12-20T15:12:44;6.70;99.90
4934;DHT22;2482;49.154;8.254;2023-12-20T15:15:11;6.70;99.90
4934;DHT22;2482;49.154;8.254;2023-12-20T15:17:39;6.60;99.90
4934;DHT22;2482;49.154;8.254;2023-12-20T15:20:06;6.70;99.90
4934;DHT22;2482;49.154;8.254;2023-12-20T15:22:36;6.60;99.90
4934;DHT22;2482;49.154;8.254;2023-12-20T15:25:04;6.60;99.90
4934;DHT22;2482;49.154;8.254;2023-12-20T15:27:35;6.50;99.90
4934;DHT22;2482;49.154;8.254;2023-12-20T15:30:06;6.40;99.90
4934;DHT22;2482;49.154;8.254;2023-12-20T15:32:36;6.60;99.90
4934;DHT22;2482;49.154;8.254;2023-12-20T15:35:04;6.50;99.90
4934;DHT22;2482;49.154;8.254;2023-12-20T15:37:32;6.50;99.90
4934;DHT22;2482;49.154;8.254;2023-12-20T15:39:59;6.60;99.90
4934;DHT22;2482;49.154;8.254;2023-12-20T15:42:31;6.40;99.90
4934;DHT22;2482;49.154;8.254;2023-12-20T15:44:59;6.40;99.90
4934;DHT22;2482;49.154;8.254;2023-12-20T15:47:26;6.60;99.90
4934;DHT22;2482;49.154;8.254;2023-12-20T15:49:53;6.50;99.90
4934;DHT22;2482;49.154;8.254;2023-12-20T15:52:20;6.40;99.90
4934;DHT22;2482;49.154;8.254;2023-12-20T15:54:47;6.60;99.90
4934;DHT22;2482;49.154;8.254;2023-12-20T15:57:15;6.60;99.90
4934;DHT22;2482;49.154;8.254;2023-12-20T15:59:42;6.60;99.90
4934;DHT22;2482;49.154;8.254;2023-12-20T16:02:09;6.50;99.90
4934;DHT22;2482;49.154;8.254;2023-12-20T16:04:36;6.70;99.90
4934;DHT22;2482;49.154;8.254;2023-12-20T16:07:04;6.70;99.90
4934;DHT22;2482;49.154;8.254;2023-12-20T16:09:31;6.60;99.90
4934;DHT22;2482;49.154;8.254;2023-12-20T16:11:58;6.70;99.90
4934;DHT22;2482;49.154;8.254;2023-12-20T16:14:25;6.60;99.90
4934;DHT22;2482;49.154;8.254;2023-12-20T16:16:55;6.60;99.90
4934;DHT22;2482;49.154;8.254;2023-12-20T16:19:22;6.60;99.90
4934;DHT22;2482;49.154;8.254;2023-12-20T16:21:50;6.60;99.90
4934;DHT22;2482;49.154;8.254;2023-12-20T16:24:17;6.70;99.90
4934;DHT22;2482;49.154;8.254;2023-12-20T16:26:44;6.80;99.90